Time;durP1;ratioP1;P1;durP2;ratioP2;P2;SDS_P1;SDS_P2;PMS_P1;PMS_P2;Temp;Humidity;BMP_temperature;BMP_pressure;BME280_temperature;BME280_humidity;BME280_pressure;Samples;Min_cycle;Max_cycle;Signal;HPM_P1;HPM_P2
2022/06/12 04:01:12;;;;;;;9.60;8.70;;;16.60;99.90;;;;;;5683010;23;20554;-65
2022/06/12 04:03:41;;;;;;;10.37;9.20;;;16.60;99.90;;;;;;5016846;28;20859;-64
2022/06/12 04:06:13;;;;;;;10.17;9.20;;;16.50;99.90;;;;;;5016897;28;20449;-64
2022/06/12 04:08:43;;;;;;;10.77;9.70;;;16.60;99.90;;;;;;5016812;28;20433;-64
2022/06/12 04:11:12;;;;;;;11.13;10.23;;;16.50;99.90;;;;;;5016998;28;20507;-64
2022/06/12 04:13:40;;;;;;;10.40;9.40;;;16.50;99.90;;;;;;5016640;28;20981;-64
2022/06/12 04:16:14;;;;;;;11.00;9.90;;;16.50;99.90;;;;;;5016671;28;20463;-64
2022/06/12 04:18:41;;;;;;;10.60;9.80;;;16.60;99.90;;;;;;5016451;28;20437;-64
2022/06/12 04:21:13;;;;;;;11.17;9.97;;;16.50;99.90;;;;;;5016602;28;20473;-64
2022/06/12 04:23:45;;;;;;;11.50;10.23;;;16.60;99.90;;;;;;5016309;28;20900;-64
2022/06/12 04:26:22;;;;;;;11.70;10.67;;;16.60;99.90;;;;;;5016283;28;20445;-64
2022/06/12 04:28:56;;;;;;;11.47;10.40;;;16.50;99.90;;;;;;5018958;28;20437;-64
2022/06/12 04:31:24;;;;;;;11.50;10.50;;;16.50;99.90;;;;;;5019163;28;20480;-64
2022/06/12 04:34:08;;;;;;;12.13;10.93;;;16.60;99.90;;;;;;5018519;28;20484;-65
2022/06/12 04:36:34;;;;;;;11.03;10.00;;;16.60;99.90;;;;;;5017265;28;20496;-65
2022/06/12 04:39:01;;;;;;;12.13;10.93;;;16.50;99.90;;;;;;5029794;28;20461;-64
2022/06/12 04:41:31;;;;;;;10.33;9.23;;;16.60;99.90;;;;;;5032079;28;20468;-64
2022/06/12 04:43:58;;;;;;;10.60;9.60;;;16.60;99.90;;;;;;5022287;28;20467;-64
2022/06/12 04:46:26;;;;;;;12.50;10.43;;;16.70;99.90;;;;;;5016271;28;20448;-64
2022/06/12 04:48:56;;;;;;;10.37;9.30;;;16.70;99.90;;;;;;5016005;28;20463;-65
2022/06/12 04:51:24;;;;;;;10.90;9.90;;;16.80;99.90;;;;;;5015952;28;20473;-64
2022/06/12 04:53:51;;;;;;;15.10;9.67;;;17.00;99.90;;;;;;5015894;28;20484;-65
2022/06/12 04:56:20;;;;;;;9.87;8.87;;;17.10;99.90;;;;;;5015706;28;20548;-64
2022/06/12 04:58:47;;;;;;;8.83;8.10;;;17.20;99.90;;;;;;5016595;28;20464;-64
2022/06/12 05:01:14;;;;;;;9.33;8.63;;;17.30;99.90;;;;;;5016045;28;20574;-64
2022/06/12 05:03:42;;;;;;;9.97;8.97;;;17.40;99.90;;;;;;5016235;28;20453;-64
2022/06/12 05:06:11;;;;;;;10.73;8.97;;;17.50;99.90;;;;;;5015755;28;20457;-64
2022/06/12 05:08:38;;;;;;;9.07;8.37;;;17.60;99.90;;;;;;5015751;28;20457;-64
2022/06/12 05:11:04;;;;;;;9.57;8.67;;;17.60;99.90;;;;;;5016002;28;20481;-64
2022/06/12 05:13:31;;;;;;;9.97;9.17;;;17.70;99.90;;;;;;5016125;28;20485;-64
2022/06/12 05:15:59;;;;;;;9.07;8.37;;;17.80;99.90;;;;;;5016338;28;20457;-64
2022/06/12 05:18:26;;;;;;;11.27;8.10;;;17.90;99.90;;;;;;5015619;28;20543;-64
2022/06/12 05:20:54;;;;;;;10.00;8.67;;;18.00;99.90;;;;;;5015019;28;21037;-64
2022/06/12 05:23:22;;;;;;;9.80;9.00;;;18.10;99.90;;;;;;5015415;28;20503;-64
2022/06/12 05:25:50;;;;;;;9.23;8.13;;;18.20;99.90;;;;;;5015569;28;20484;-64
2022/06/12 05:28:19;;;;;;;8.90;8.20;;;18.30;99.90;;;;;;5015610;28;20796;-65
2022/06/12 05:30:46;;;;;;;10.53;9.43;;;18.30;99.90;;;;;;5014368;28;20484;-65
2022/06/12 05:33:13;;;;;;;9.23;8.37;;;18.40;99.90;;;;;;5015222;28;20476;-65
2022/06/12 05:35:41;;;;;;;9.80;8.90;;;18.50;99.90;;;;;;5014840;28;20457;-64
2022/06/12 05:38:10;;;;;;;8.87;8.17;;;18.50;99.90;;;;;;5014723;28;20812;-64
2022/06/12 05:40:40;;;;;;;9.63;8.83;;;18.60;99.90;;;;;;5014937;28;20479;-65
2022/06/12 05:43:08;;;;;;;12.37;9.13;;;18.60;99.90;;;;;;5015218;28;20464;-64
2022/06/12 05:45:35;;;;;;;10.13;9.10;;;18.70;99.90;;;;;;5015007;28;20453;-63
2022/06/12 05:48:05;;;;;;;9.47;8.77;;;18.80;99.90;;;;;;5014969;28;20823;-69
2022/06/12 05:50:35;;;;;;;8.70;8.10;;;18.90;99.90;;;;;;5014850;28;20492;-64
2022/06/12 05:53:03;;;;;;;9.23;8.43;;;19.10;99.90;;;;;;5015065;28;20472;-64
2022/06/12 05:55:31;;;;;;;8.53;7.90;;;19.30;99.90;;;;;;5015736;28;20461;-63
2022/06/12 05:57:57;;;;;;;10.40;8.23;;;19.40;99.90;;;;;;5014742;28;20453;-64
2022/06/12 06:00:27;;;;;;;11.50;8.30;;;19.50;99.90;;;;;;5014718;28;20457;-65
2022/06/12 06:02:54;;;;;;;9.20;8.50;;;19.70;99.90;;;;;;5015509;28;20438;-64
2022/06/12 06:05:21;;;;;;;10.67;8.93;;;19.90;99.90;;;;;;5014326;28;20460;-65
2022/06/12 06:07:48;;;;;;;8.87;8.20;;;20.00;99.90;;;;;;5014666;28;20479;-65
2022/06/12 06:10:18;;;;;;;9.43;8.70;;;20.10;99.90;;;;;;5014812;28;20449;-65
2022/06/12 06:12:46;;;;;;;9.47;8.10;;;20.20;99.90;;;;;;5014737;28;20456;-65
2022/06/12 06:15:13;;;;;;;7.13;6.53;;;20.40;99.90;;;;;;5014323;28;20449;-63
2022/06/12 06:17:41;;;;;;;8.73;7.93;;;20.50;99.90;;;;;;5014624;28;20453;-64
2022/06/12 06:20:11;;;;;;;8.60;7.90;;;20.70;99.90;;;;;;5014694;28;20453;-65
2022/06/12 06:22:38;;;;;;;8.80;8.00;;;20.90;99.90;;;;;;5015545;28;20449;-65
2022/06/12 06:25:06;;;;;;;9.23;8.30;;;21.10;99.90;;;;;;5014399;28;20479;-64
2022/06/12 06:27:32;;;;;;;7.43;6.83;;;21.30;99.90;;;;;;5014346;28;20460;-64
2022/06/12 06:30:01;;;;;;;9.70;8.70;;;21.50;99.90;;;;;;5014367;28;20452;-65
2022/06/12 06:32:27;;;;;;;8.23;7.53;;;21.60;99.90;;;;;;5014447;28;20476;-64
2022/06/12 06:34:54;;;;;;;8.50;7.57;;;21.70;99.90;;;;;;5014960;28;20488;-65
2022/06/12 06:37:21;;;;;;;7.63;7.00;;;22.00;99.90;;;;;;5013878;28;20955;-64
2022/06/12 06:39:47;;;;;;;10.00;7.07;;;22.30;99.90;;;;;;5014288;28;20456;-64
2022/06/12 06:42:14;;;;;;;9.30;8.40;;;22.50;99.90;;;;;;5014160;28;20480;-67
2022/06/12 06:47:26;;;;;;;7.27;6.77;;;22.80;99.90;;;;;;5014366;28;20444;-67
2022/06/12 06:49:53;;;;;;;8.17;7.43;;;23.00;99.90;;;;;;5014235;28;20484;-66
2022/06/12 06:52:20;;;;;;;8.10;7.40;;;23.20;99.90;;;;;;5014101;28;20473;-66
2022/06/12 06:54:47;;;;;;;7.43;6.83;;;23.40;99.90;;;;;;5013821;28;20481;-66
2022/06/12 06:57:13;;;;;;;7.90;7.20;;;23.70;99.90;;;;;;5013674;28;20799;-66
2022/06/12 06:59:41;;;;;;;7.50;6.90;;;24.10;99.90;;;;;;5013796;28;20456;-66
2022/06/12 07:02:10;;;;;;;9.97;7.40;;;24.50;99.90;;;;;;5013549;28;21045;-66
2022/06/12 07:04:39;;;;;;;7.03;6.40;;;25.10;99.90;;;;;;5013674;28;20449;-66
2022/06/12 07:07:06;;;;;;;5.93;5.43;;;25.70;99.90;;;;;;5013956;28;20452;-66
2022/06/12 07:09:33;;;;;;;6.20;5.80;;;26.40;99.90;;;;;;5013963;28;20460;-66
2022/06/12 07:12:00;;;;;;;6.67;6.13;;;27.20;99.90;;;;;;5013593;28;20484;-66
2022/06/12 07:14:28;;;;;;;6.93;6.20;;;27.70;99.90;;;;;;5013752;28;20480;-67
2022/06/12 07:16:56;;;;;;;5.77;5.37;;;28.30;99.90;;;;;;5013699;28;20449;-65
2022/06/12 07:19:23;;;;;;;6.40;5.80;;;28.90;99.90;;;;;;5013865;28;20459;-65
2022/06/12 07:21:51;;;;;;;6.27;5.77;;;29.60;99.90;;;;;;5013629;28;20526;-66
2022/06/12 07:24:17;;;;;;;5.67;5.27;;;30.00;99.00;;;;;;5013762;28;20476;-66
2022/06/12 07:26:47;;;;;;;5.63;5.20;;;30.60;96.60;;;;;;5013691;28;20971;-65
2022/06/12 07:29:15;;;;;;;5.60;5.00;;;31.10;94.20;;;;;;5014189;28;20859;-65
2022/06/12 07:31:43;;;;;;;5.60;5.20;;;31.60;93.70;;;;;;5013981;28;20580;-65
2022/06/12 07:34:12;;;;;;;5.87;5.47;;;32.10;90.70;;;;;;5014867;28;20479;-66
2022/06/12 07:36:42;;;;;;;6.80;6.20;;;31.70;90.10;;;;;;5020615;28;20515;-64
2022/06/12 07:39:13;;;;;;;7.00;6.17;;;32.00;89.20;;;;;;5025267;28;20463;-64
2022/06/12 07:41:41;;;;;;;7.63;6.10;;;32.20;86.90;;;;;;5025312;28;20472;-65
2022/06/12 07:44:08;;;;;;;7.23;5.80;;;32.40;86.50;;;;;;5018040;28;20453;-64
2022/06/12 07:46:35;;;;;;;6.03;5.63;;;32.70;84.30;;;;;;5014598;28;20452;-65
2022/06/12 07:49:02;;;;;;;7.43;5.20;;;32.80;83.10;;;;;;5014310;28;20463;-64
2022/06/12 07:51:30;;;;;;;5.80;5.40;;;33.00;82.10;;;;;;5013782;28;21006;-66
2022/06/12 07:53:56;;;;;;;5.00;4.60;;;32.80;81.10;;;;;;5014240;28;20487;-65
2022/06/12 07:56:26;;;;;;;5.17;4.67;;;33.00;78.90;;;;;;5017174;28;20464;-65
2022/06/12 07:58:53;;;;;;;5.00;4.50;;;32.70;79.50;;;;;;5017319;28;20460;-65
2022/06/12 08:01:23;;;;;;;4.70;4.30;;;32.90;78.90;;;;;;5016844;28;20491;-64
2022/06/12 08:03:50;;;;;;;6.63;4.83;;;33.10;77.20;;;;;;5016609;28;20459;-64
2022/06/12 08:06:17;;;;;;;4.57;4.20;;;33.20;77.10;;;;;;5016976;28;20445;-64
2022/06/12 08:08:44;;;;;;;4.60;3.87;;;33.60;75.20;;;;;;5017202;28;20452;-64
2022/06/12 08:11:11;;;;;;;6.07;4.93;;;33.70;71.80;;;;;;5016371;28;20476;-63
2022/06/12 08:13:40;;;;;;;5.37;3.93;;;33.70;72.50;;;;;;5016632;28;20486;-63
2022/06/12 08:16:08;;;;;;;22.23;5.43;;;33.90;71.60;;;;;;5017038;28;20456;-64
2022/06/12 08:18:35;;;;;;;22.20;4.90;;;33.90;71.10;;;;;;5016235;28;20939;-64
2022/06/12 08:21:07;;;;;;;4.47;3.55;;;33.70;73.10;;;;;;5015820;28;20454;-64
2022/06/12 08:23:38;;;;;;;5.57;4.10;;;34.10;72.10;;;;;;5016393;28;20182;-64
2022/06/12 08:26:07;;;;;;;5.57;4.27;;;34.50;69.30;;;;;;5016424;28;20476;-64
2022/06/12 08:28:37;;;;;;;4.23;3.70;;;34.70;68.40;;;;;;5016370;28;20459;-64
2022/06/12 08:31:08;;;;;;;13.20;5.30;;;35.00;69.60;;;;;;5016881;28;20480;-63
2022/06/12 08:33:38;;;;;;;4.40;3.07;;;35.40;65.00;;;;;;5016299;28;20437;-63
2022/06/12 08:36:06;;;;;;;5.73;3.80;;;35.60;65.00;;;;;;5016292;28;20856;-63
2022/06/12 08:38:32;;;;;;;5.40;3.80;;;35.20;65.70;;;;;;5016148;28;20538;-63
2022/06/12 08:41:07;;;;;;;5.37;3.07;;;35.30;64.30;;;;;;5015782;28;20475;-63
2022/06/12 08:43:38;;;;;;;3.60;3.40;;;35.50;64.70;;;;;;5016022;28;20440;-63
2022/06/12 08:46:14;;;;;;;7.40;3.33;;;35.60;63.00;;;;;;5016027;28;20437;-63
2022/06/12 08:48:47;;;;;;;3.10;2.90;;;35.80;59.60;;;;;;5015771;28;20436;-63
2022/06/12 08:51:21;;;;;;;3.03;2.47;;;35.80;59.60;;;;;;5015490;28;20542;-63
2022/06/12 08:53:54;;;;;;;7.17;3.37;;;35.70;57.20;;;;;;5015954;28;20479;-63
2022/06/12 08:56:26;;;;;;;3.13;3.00;;;35.80;59.50;;;;;;5015802;28;20445;-63
2022/06/12 08:59:02;;;;;;;5.00;3.30;;;35.60;58.30;;;;;;5015967;28;20448;-63
2022/06/12 09:01:31;;;;;;;4.30;3.60;;;35.80;59.00;;;;;;5015493;28;20480;-63
2022/06/12 09:03:58;;;;;;;3.33;3.03;;;35.90;58.50;;;;;;5015725;28;20475;-63
2022/06/12 09:06:37;;;;;;;3.00;2.70;;;36.10;58.30;;;;;;5014787;28;20864;-63
2022/06/12 09:09:10;;;;;;;8.73;3.70;;;36.50;56.90;;;;;;5015706;28;20443;-64
2022/06/12 09:11:43;;;;;;;3.13;2.83;;;36.70;56.20;;;;;;5015924;28;20491;-63
2022/06/12 09:14:22;;;;;;;2.53;2.30;;;36.90;53.40;;;;;;5015181;28;21037;-63
2022/06/12 09:16:57;;;;;;;3.23;2.93;;;36.80;54.00;;;;;;5015490;28;20445;-63
2022/06/12 09:19:32;;;;;;;3.83;2.80;;;36.60;52.50;;;;;;5015527;28;20433;-63
2022/06/12 09:22:09;;;;;;;2.67;2.33;;;36.70;52.20;;;;;;5015337;28;20482;-63
2022/06/12 09:24:43;;;;;;;2.87;2.67;;;37.00;52.50;;;;;;5015274;28;20463;-64
2022/06/12 09:27:21;;;;;;;2.55;2.22;;;37.10;53.10;;;;;;5014233;28;20483;-63
2022/06/12 09:29:56;;;;;;;5.30;2.73;;;37.50;51.50;;;;;;5015044;28;20687;-64
2022/06/12 09:32:36;;;;;;;3.00;2.80;;;37.90;53.10;;;;;;5015164;28;20479;-64
2022/06/12 09:35:13;;;;;;;3.27;2.70;;;38.10;50.70;;;;;;5015076;28;20460;-64
2022/06/12 09:40:39;;;;;;;4.40;2.73;;;37.70;50.10;;;;;;5014761;28;20514;-63
2022/06/12 09:43:17;;;;;;;3.00;2.70;;;37.70;50.30;;;;;;5014884;28;20511;-63
2022/06/12 09:45:51;;;;;;;3.50;2.47;;;37.30;51.60;;;;;;5014824;28;20437;-64
2022/06/12 09:48:24;;;;;;;6.10;2.70;;;37.10;51.00;;;;;;5014546;28;20448;-65
2022/06/12 09:51:06;;;;;;;2.73;2.63;;;37.10;50.10;;;;;;5014926;28;20478;-65
2022/06/12 09:54:01;;;;;;;2.60;2.40;;;37.10;52.00;;;;;;5014884;28;20443;-64
2022/06/12 09:56:35;;;;;;;2.93;2.67;;;37.20;51.20;;;;;;5014541;28;20900;-63
2022/06/12 09:59:11;;;;;;;2.43;2.33;;;37.40;51.00;;;;;;5014803;28;20851;-63
2022/06/12 10:01:42;;;;;;;8.20;2.90;;;37.50;50.30;;;;;;5014298;28;20990;-63
2022/06/12 10:04:18;;;;;;;4.60;3.20;;;37.60;50.60;;;;;;5014685;28;20436;-63
2022/06/12 10:06:49;;;;;;;6.97;2.70;;;37.90;50.40;;;;;;5014704;28;20436;-64
2022/06/12 10:09:22;;;;;;;5.17;2.60;;;38.30;50.00;;;;;;5014727;28;20440;-63
2022/06/12 10:11:54;;;;;;;2.10;2.00;;;38.40;48.40;;;;;;5014292;28;21033;-63
2022/06/12 10:14:25;;;;;;;2.67;2.47;;;38.50;47.90;;;;;;5014411;28;20469;-64
2022/06/12 10:16:55;;;;;;;3.47;2.50;;;38.60;50.60;;;;;;5013864;28;20835;-64
2022/06/12 10:19:29;;;;;;;3.07;2.73;;;38.50;50.30;;;;;;5014163;28;20966;-64
2022/06/12 10:22:00;;;;;;;4.50;2.33;;;37.90;47.60;;;;;;5014225;28;20935;-64
2022/06/12 10:24:27;;;;;;;2.50;2.30;;;38.00;47.20;;;;;;5014566;28;20460;-64
2022/06/12 10:26:58;;;;;;;2.80;2.50;;;37.90;47.30;;;;;;5014353;28;20871;-64
2022/06/12 10:29:25;;;;;;;2.60;2.40;;;37.80;48.00;;;;;;5014283;28;20460;-63
2022/06/12 10:31:58;;;;;;;4.67;2.50;;;37.90;50.20;;;;;;5014205;28;20546;-63
2022/06/12 10:34:29;;;;;;;2.33;2.20;;;37.70;49.60;;;;;;5014049;28;20461;-64
2022/06/12 10:36:57;;;;;;;2.70;1.90;;;37.60;47.30;;;;;;5015462;28;21023;-64
2022/06/12 10:39:26;;;;;;;2.17;2.07;;;37.60;48.40;;;;;;5021431;28;20483;-64
2022/06/12 10:41:55;;;;;;;3.53;2.77;;;37.80;50.10;;;;;;5020975;28;20476;-64
2022/06/12 10:44:37;;;;;;;3.57;3.27;;;37.90;48.50;;;;;;5023279;28;20456;-64
2022/06/12 10:47:15;;;;;;;3.80;3.00;;;38.20;48.60;;;;;;5024490;28;20440;-64
2022/06/12 10:49:44;;;;;;;3.70;2.90;;;38.40;49.50;;;;;;5014640;28;20441;-64
2022/06/12 10:52:17;;;;;;;2.63;2.43;;;38.60;48.20;;;;;;5013657;28;20983;-64
2022/06/12 10:54:45;;;;;;;4.80;2.30;;;38.70;50.50;;;;;;5013858;28;20891;-64
2022/06/12 10:57:33;;;;;;;2.10;2.00;;;38.70;46.20;;;;;;5014845;28;20792;-64
2022/06/12 11:00:05;;;;;;;3.38;2.20;;;38.50;45.30;;;;;;5011371;28;20861;-64
2022/06/12 11:03:06;;;;;;;3.77;2.60;;;38.50;48.40;;;;;;5013782;28;20260;-63
2022/06/12 11:05:55;;;;;;;2.70;2.50;;;38.10;47.30;;;;;;5014973;28;20440;-63
2022/06/12 11:08:39;;;;;;;3.80;2.83;;;38.00;47.30;;;;;;5014039;28;20436;-63
2022/06/12 11:11:15;;;;;;;3.13;2.90;;;37.60;48.40;;;;;;5013770;28;20483;-64
2022/06/12 11:13:54;;;;;;;2.23;2.13;;;37.20;49.70;;;;;;5013883;28;20440;-64
2022/06/12 11:16:32;;;;;;;2.70;2.50;;;37.00;47.60;;;;;;5013473;28;21030;-64
2022/06/12 11:19:13;;;;;;;3.83;3.50;;;37.00;49.60;;;;;;5013829;28;20799;-64
2022/06/12 11:21:55;;;;;;;3.47;2.77;;;36.80;49.20;;;;;;5013798;28;20479;-63
2022/06/12 11:24:25;;;;;;;3.50;2.90;;;36.60;47.70;;;;;;5014135;28;20928;-66
2022/06/12 11:27:19;;;;;;;3.63;2.40;;;36.20;49.10;;;;;;5013888;28;20503;-65
2022/06/12 11:30:15;;;;;;;3.43;3.13;;;35.80;48.10;;;;;;5015809;28;20441;-65
2022/06/12 11:33:06;;;;;;;2.73;2.53;;;35.30;50.90;;;;;;5017326;28;20477;-66
2022/06/12 11:35:45;;;;;;;2.80;2.60;;;35.00;50.90;;;;;;5013359;28;20476;-65
2022/06/12 11:38:34;;;;;;;3.60;2.57;;;34.60;51.40;;;;;;5018645;28;20491;-65
2022/06/12 11:41:12;;;;;;;2.40;2.20;;;34.30;51.40;;;;;;5017734;28;21069;-65
2022/06/12 11:43:42;;;;;;;2.70;2.50;;;34.10;51.00;;;;;;5017541;28;20459;-65
2022/06/12 11:46:24;;;;;;;3.10;2.73;;;34.10;53.60;;;;;;5017337;28;20440;-66
2022/06/12 11:49:05;;;;;;;2.30;2.20;;;34.00;52.50;;;;;;5017078;28;20436;-65
2022/06/12 11:51:39;;;;;;;2.77;2.40;;;33.60;53.50;;;;;;5017079;28;20883;-65
2022/06/12 11:54:30;;;;;;;3.73;2.13;;;33.60;55.70;;;;;;5016839;28;20785;-66
2022/06/12 11:57:08;;;;;;;3.87;2.60;;;33.40;53.80;;;;;;5017111;28;20437;-66
2022/06/12 11:59:44;;;;;;;2.10;2.00;;;33.50;52.90;;;;;;5017120;28;20523;-66
2022/06/12 12:02:19;;;;;;;2.30;2.10;;;33.60;54.80;;;;;;5016656;28;20479;-66
2022/06/12 12:05:04;;;;;;;5.20;2.43;;;33.70;55.40;;;;;;5016935;28;20440;-66
2022/06/12 12:07:48;;;;;;;2.60;2.40;;;33.90;55.60;;;;;;5016975;28;20436;-65
2022/06/12 12:10:35;;;;;;;2.73;2.57;;;34.00;54.70;;;;;;5016699;28;20443;-65
2022/06/12 12:13:09;;;;;;;2.60;2.40;;;34.00;52.60;;;;;;5016556;28;20820;-64
2022/06/12 12:15:43;;;;;;;4.50;2.50;;;34.10;52.90;;;;;;5016631;28;20470;-64
2022/06/12 12:18:19;;;;;;;2.43;2.23;;;34.00;53.30;;;;;;5016724;28;20447;-64
2022/06/12 12:20:47;;;;;;;2.87;2.63;;;33.70;52.70;;;;;;5016644;28;20483;-64
2022/06/12 12:23:18;;;;;;;3.17;2.43;;;33.40;57.00;;;;;;5016572;28;20944;-65
2022/06/12 12:25:50;;;;;;;3.30;2.63;;;33.10;56.20;;;;;;5016250;28;20904;-65
2022/06/12 12:28:22;;;;;;;2.10;2.00;;;33.20;55.30;;;;;;5016518;28;20441;-64
2022/06/12 12:31:01;;;;;;;2.20;2.10;;;33.10;55.60;;;;;;5016455;28;20475;-64
2022/06/12 12:33:29;;;;;;;4.20;2.13;;;33.10;55.50;;;;;;5016263;28;20444;-65
2022/06/12 12:41:44;;;;;;;2.90;2.57;;;33.70;55.40;;;;;;5015773;28;20615;-65
2022/06/12 12:44:13;;;;;;;3.90;2.70;;;34.00;53.00;;;;;;5016277;28;20522;-67
2022/06/12 12:46:45;;;;;;;2.80;2.60;;;34.00;53.40;;;;;;5016224;28;20502;-67
2022/06/12 12:49:21;;;;;;;3.40;3.10;;;34.10;52.60;;;;;;5016085;28;20846;-67
2022/06/12 12:51:48;;;;;;;2.50;2.30;;;34.00;53.40;;;;;;5015633;28;20982;-67
2022/06/12 12:54:19;;;;;;;2.70;2.50;;;33.90;53.20;;;;;;5016037;28;20452;-67
2022/06/12 12:56:56;;;;;;;2.50;2.30;;;33.70;55.80;;;;;;5015967;28;20511;-67
2022/06/12 12:59:34;;;;;;;4.17;2.63;;;33.70;54.80;;;;;;5015651;28;20433;-67
2022/06/12 13:02:16;;;;;;;5.90;5.60;;;33.30;53.60;;;;;;5015385;28;20489;-67
2022/06/12 13:04:44;;;;;;;2.97;2.87;;;33.10;53.80;;;;;;5015796;28;20443;-66
2022/06/12 13:07:20;;;;;;;4.00;3.70;;;32.90;55.80;;;;;;5016240;28;20503;-65
2022/06/12 13:10:16;;;;;;;3.87;3.57;;;33.10;56.90;;;;;;5015581;28;20440;-67
2022/06/12 13:13:06;;;;;;;4.57;2.70;;;33.20;57.00;;;;;;5016174;28;20433;-66
2022/06/12 13:15:46;;;;;;;2.85;2.15;;;33.30;56.80;;;;;;5014896;28;20459;-67
2022/06/12 13:18:42;;;;;;;4.40;3.00;;;33.40;57.80;;;;;;5015599;28;20197;-66
2022/06/12 13:21:19;;;;;;;2.47;2.27;;;33.60;55.40;;;;;;5015410;28;20483;-66
2022/06/12 13:24:21;;;;;;;2.70;2.50;;;33.60;54.40;;;;;;5015508;28;20436;-65
2022/06/12 13:26:48;;;;;;;2.97;2.67;;;33.70;56.90;;;;;;5015208;28;20512;-66
2022/06/12 13:29:19;;;;;;;3.70;2.50;;;33.60;55.70;;;;;;5015278;28;20452;-65
2022/06/12 13:31:55;;;;;;;2.50;2.40;;;33.60;56.70;;;;;;5015106;28;20484;-65
2022/06/12 13:34:22;;;;;;;3.80;2.90;;;33.50;56.60;;;;;;5015322;28;20447;-66
2022/06/12 13:36:49;;;;;;;2.63;2.37;;;33.30;55.50;;;;;;5015309;28;20472;-66
2022/06/12 13:39:23;;;;;;;2.80;2.60;;;33.00;56.40;;;;;;5015342;28;20801;-66
2022/06/12 13:41:55;;;;;;;3.13;2.93;;;32.90;56.40;;;;;;5021147;28;20483;-65
2022/06/12 13:44:31;;;;;;;2.80;2.70;;;32.90;57.50;;;;;;5024320;28;20437;-66
2022/06/12 13:47:02;;;;;;;2.80;2.63;;;32.60;57.80;;;;;;5018636;28;20519;-66
2022/06/12 13:49:36;;;;;;;2.70;2.40;;;32.60;58.40;;;;;;5015144;28;20448;-66
2022/06/12 13:52:11;;;;;;;4.93;2.93;;;32.70;58.40;;;;;;5014627;28;20476;-66
2022/06/12 13:54:41;;;;;;;3.00;2.73;;;32.70;58.70;;;;;;5029171;28;20464;-66
2022/06/12 13:57:14;;;;;;;3.13;2.93;;;32.90;56.20;;;;;;5024590;28;20559;-64
2022/06/12 13:59:46;;;;;;;4.07;2.77;;;32.90;58.90;;;;;;5016135;28;20572;-66
2022/06/12 14:02:19;;;;;;;3.70;2.50;;;32.90;57.30;;;;;;5014396;28;20862;-66
2022/06/12 14:04:57;;;;;;;2.80;2.60;;;32.70;57.40;;;;;;5014992;28;20516;-66
2022/06/12 14:07:27;;;;;;;2.80;2.40;;;32.50;57.90;;;;;;5014914;28;20437;-67
2022/06/12 14:09:59;;;;;;;2.87;2.47;;;32.70;58.50;;;;;;5015580;28;20441;-65
2022/06/12 14:12:27;;;;;;;3.00;2.80;;;33.00;56.50;;;;;;5014372;28;21001;-66
2022/06/12 14:14:56;;;;;;;2.90;2.70;;;33.40;58.50;;;;;;5014566;28;20460;-66
2022/06/12 14:17:25;;;;;;;2.20;2.10;;;33.30;56.70;;;;;;5014979;28;20999;-67
2022/06/12 14:20:01;;;;;;;2.83;2.53;;;33.40;55.30;;;;;;5014620;28;20452;-66
2022/06/12 14:22:31;;;;;;;3.53;3.07;;;33.30;57.80;;;;;;5014622;28;20476;-66
2022/06/12 14:25:01;;;;;;;3.30;3.00;;;33.40;57.40;;;;;;5015223;28;20847;-66
2022/06/12 14:27:37;;;;;;;2.87;2.40;;;33.60;57.10;;;;;;5014908;28;20453;-66
2022/06/12 14:30:28;;;;;;;31.00;28.63;;;33.80;55.30;;;;;;5014638;28;20856;-66
2022/06/12 14:32:55;;;;;;;3.00;2.70;;;33.80;56.30;;;;;;5014013;28;20484;-66
2022/06/12 14:35:22;;;;;;;2.57;2.37;;;34.10;56.50;;;;;;5014373;28;20484;-66
2022/06/12 14:37:49;;;;;;;5.82;5.32;;;33.90;55.10;;;;;;5014169;28;20549;-65
2022/06/12 14:40:24;;;;;;;3.17;2.87;;;33.80;55.00;;;;;;5014461;28;20208;-66
2022/06/12 14:42:56;;;;;;;2.70;2.53;;;33.80;54.70;;;;;;5014405;28;20432;-66
2022/06/12 14:45:25;;;;;;;5.03;4.63;;;33.70;55.10;;;;;;5014371;28;20441;-66
2022/06/12 14:47:51;;;;;;;5.00;3.73;;;33.40;55.50;;;;;;5014464;28;20840;-66
2022/06/12 14:50:18;;;;;;;15.13;13.80;;;33.20;56.60;;;;;;5014229;28;20468;-66
2022/06/12 14:52:45;;;;;;;6.70;5.27;;;33.10;57.70;;;;;;5014085;28;20453;-66
2022/06/12 14:55:12;;;;;;;3.63;2.87;;;33.00;58.50;;;;;;5014099;28;20934;-66
2022/06/12 14:57:38;;;;;;;5.63;3.00;;;32.90;57.60;;;;;;5013975;28;20844;-66
2022/06/12 15:00:09;;;;;;;4.80;3.13;;;32.60;57.70;;;;;;5014281;28;20464;-65
2022/06/12 15:02:37;;;;;;;4.13;3.30;;;32.30;57.30;;;;;;5013880;28;20576;-66
2022/06/12 15:05:17;;;;;;;29.20;26.37;;;32.00;58.90;;;;;;5016825;28;20460;-65
2022/06/12 15:07:44;;;;;;;4.67;4.27;;;31.80;57.90;;;;;;5018227;28;20429;-66
2022/06/12 15:10:11;;;;;;;4.17;3.77;;;31.70;60.60;;;;;;5018067;28;20519;-66
2022/06/12 15:12:40;;;;;;;18.10;16.27;;;31.90;61.70;;;;;;5017903;28;20481;-66
2022/06/12 15:15:15;;;;;;;37.77;34.83;;;31.90;60.30;;;;;;5017791;28;21003;-65
2022/06/12 15:17:43;;;;;;;4.60;4.20;;;32.00;59.70;;;;;;5017751;28;20962;-66
2022/06/12 15:20:11;;;;;;;5.00;3.30;;;32.10;58.00;;;;;;5018070;28;20456;-65
2022/06/12 15:22:37;;;;;;;3.90;3.53;;;32.10;57.70;;;;;;5017775;28;20475;-65
2022/06/12 15:25:04;;;;;;;3.23;2.93;;;32.10;58.60;;;;;;5018628;28;20483;-67
2022/06/12 15:30:16;;;;;;;3.23;3.03;;;31.80;59.50;;;;;;5017254;28;20492;-66
2022/06/12 15:32:44;;;;;;;3.77;3.10;;;31.70;57.20;;;;;;5017456;28;20540;-66
2022/06/12 15:35:17;;;;;;;8.20;2.83;;;31.70;59.60;;;;;;5017392;28;20563;-66
2022/06/12 15:37:43;;;;;;;25.13;23.37;;;31.70;60.00;;;;;;5017420;28;20464;-66
2022/06/12 15:40:15;;;;;;;328.33;302.15;;;31.70;60.10;;;;;;5016504;28;20461;-65
2022/06/12 15:42:42;;;;;;;130.37;121.63;;;31.80;59.30;;;;;;5016942;28;20643;-65
2022/06/12 15:45:13;;;;;;;12.40;7.23;;;31.80;59.90;;;;;;5017224;28;20459;-64
2022/06/12 15:47:39;;;;;;;4.70;4.30;;;31.80;59.10;;;;;;5017375;28;20443;-67
2022/06/12 15:50:10;;;;;;;4.13;3.90;;;31.90;59.30;;;;;;5016849;28;20927;-64
2022/06/12 15:52:37;;;;;;;8.93;7.60;;;31.90;57.60;;;;;;5017158;28;20508;-66
2022/06/12 15:55:05;;;;;;;5.40;4.90;;;31.90;58.70;;;;;;5017097;28;20520;-66
2022/06/12 15:57:31;;;;;;;4.40;3.77;;;31.90;58.40;;;;;;5016926;28;20472;-66
2022/06/12 15:59:58;;;;;;;3.50;3.20;;;31.80;58.00;;;;;;5016972;28;20817;-66
2022/06/12 16:02:26;;;;;;;4.03;3.73;;;31.70;58.00;;;;;;5016559;28;20488;-67
2022/06/12 16:04:53;;;;;;;3.00;2.80;;;31.70;58.20;;;;;;5016963;28;20456;-67
2022/06/12 16:07:23;;;;;;;4.90;3.33;;;31.60;57.70;;;;;;5016771;28;20461;-67
2022/06/12 16:09:50;;;;;;;5.40;3.40;;;31.60;57.70;;;;;;5016684;28;20471;-67
2022/06/12 16:12:17;;;;;;;2.50;2.40;;;31.50;58.70;;;;;;5016606;28;20483;-66
2022/06/12 16:14:44;;;;;;;2.83;2.67;;;31.60;57.50;;;;;;5015727;28;20453;-66
2022/06/12 16:17:11;;;;;;;2.93;2.63;;;31.60;57.50;;;;;;5016695;28;20480;-66
2022/06/12 16:19:38;;;;;;;16.57;15.17;;;31.50;56.40;;;;;;5017569;28;20443;-67
2022/06/12 16:22:05;;;;;;;70.60;65.60;;;31.50;56.70;;;;;;5016269;28;20477;-66
2022/06/12 16:24:34;;;;;;;308.17;286.80;;;31.50;56.00;;;;;;5016586;28;20465;-67
2022/06/12 16:27:00;;;;;;;520.70;484.53;;;31.60;56.30;;;;;;5016265;28;20960;-67
2022/06/12 16:29:28;;;;;;;26.93;24.17;;;31.60;55.20;;;;;;5016548;28;20457;-65
2022/06/12 16:31:55;;;;;;;6.60;6.13;;;31.50;53.40;;;;;;5016433;28;20473;-66
2022/06/12 16:34:22;;;;;;;4.77;4.37;;;31.50;55.30;;;;;;5016530;28;20502;-66
2022/06/12 16:36:49;;;;;;;4.20;3.90;;;31.30;54.90;;;;;;5016420;28;20480;-68
2022/06/12 16:39:16;;;;;;;5.47;5.03;;;31.30;55.20;;;;;;5016991;28;20867;-67
2022/06/12 16:41:48;;;;;;;3.60;3.30;;;31.20;55.80;;;;;;5016008;28;20587;-67
2022/06/12 16:44:16;;;;;;;4.80;3.10;;;31.10;55.50;;;;;;5017233;28;20450;-66
2022/06/12 16:46:44;;;;;;;3.40;2.57;;;31.00;56.20;;;;;;5025983;28;20444;-65
2022/06/12 16:49:11;;;;;;;3.70;2.83;;;31.00;56.60;;;;;;5025150;28;20457;-67
2022/06/12 16:51:52;;;;;;;2.97;2.87;;;30.80;57.20;;;;;;5016444;28;20481;-66
2022/06/12 16:54:19;;;;;;;2.80;2.60;;;30.70;56.90;;;;;;5018400;28;20437;-68
2022/06/12 16:56:47;;;;;;;3.10;2.87;;;30.70;57.70;;;;;;5028005;28;20484;-67
2022/06/12 16:59:14;;;;;;;3.37;3.07;;;30.50;57.20;;;;;;5029777;28;20456;-68
2022/06/12 17:01:42;;;;;;;3.33;3.03;;;30.40;58.00;;;;;;5028895;28;20487;-67
2022/06/12 17:04:09;;;;;;;3.20;3.00;;;30.30;58.90;;;;;;5028871;28;20473;-67
2022/06/12 17:06:37;;;;;;;3.70;3.33;;;30.10;58.70;;;;;;5018566;28;20878;-67
2022/06/12 17:09:05;;;;;;;6.10;2.90;;;30.10;59.10;;;;;;5018302;28;20939;-68
2022/06/12 17:11:31;;;;;;;2.30;2.20;;;30.00;59.70;;;;;;5016303;28;20508;-71
2022/06/12 17:14:00;;;;;;;2.57;2.37;;;29.80;58.60;;;;;;5015354;28;20456;-68
2022/06/12 17:16:27;;;;;;;2.50;2.30;;;29.80;60.10;;;;;;5015428;28;20481;-68
2022/06/12 17:21:38;;;;;;;2.80;2.60;;;29.60;60.90;;;;;;5015191;28;20460;-66
2022/06/12 17:24:05;;;;;;;3.20;2.90;;;29.50;60.20;;;;;;5015334;28;20464;-68